sensor_id;sensor_type;location;lat;lon;timestamp;temperature;humidity
25108;DHT22;13090;53.422;7.670;2023-05-21T00:02:34;16.20;66.40
25108;DHT22;13090;53.422;7.670;2023-05-21T00:07:55;16.20;66.80
25108;DHT22;13090;53.422;7.670;2023-05-21T00:13:16;16.10;66.80
25108;DHT22;13090;53.422;7.670;2023-05-21T00:18:38;16.00;66.80
25108;DHT22;13090;53.422;7.670;2023-05-21T00:24:00;16.00;67.30
25108;DHT22;13090;53.422;7.670;2023-05-21T00:29:20;15.90;67.20
25108;DHT22;13090;53.422;7.670;2023-05-21T00:34:44;15.80;67.20
25108;DHT22;13090;53.422;7.670;2023-05-21T00:40:06;15.80;67.70
25108;DHT22;13090;53.422;7.670;2023-05-21T00:45:27;15.70;67.70
25108;DHT22;13090;53.422;7.670;2023-05-21T00:50:49;15.70;67.90
25108;DHT22;13090;53.422;7.670;2023-05-21T00:56:11;15.60;68.10
25108;DHT22;13090;53.422;7.670;2023-05-21T01:01:32;15.60;67.90
25108;DHT22;13090;53.422;7.670;2023-05-21T01:06:54;15.60;68.10
25108;DHT22;13090;53.422;7.670;2023-05-21T01:12:15;15.50;68.40
25108;DHT22;13090;53.422;7.670;2023-05-21T01:17:37;15.50;68.30
25108;DHT22;13090;53.422;7.670;2023-05-21T01:23:01;15.50;68.50
25108;DHT22;13090;53.422;7.670;2023-05-21T01:28:22;15.40;68.80
25108;DHT22;13090;53.422;7.670;2023-05-21T01:33:47;15.40;68.70
25108;DHT22;13090;53.422;7.670;2023-05-21T01:39:16;15.40;69.20
25108;DHT22;13090;53.422;7.670;2023-05-21T01:44:40;15.50;69.70
25108;DHT22;13090;53.422;7.670;2023-05-21T01:50:02;15.50;69.10
25108;DHT22;13090;53.422;7.670;2023-05-21T01:55:26;15.50;69.00
25108;DHT22;13090;53.422;7.670;2023-05-21T02:00:47;15.50;69.10
25108;DHT22;13090;53.422;7.670;2023-05-21T02:06:08;15.50;68.90
25108;DHT22;13090;53.422;7.670;2023-05-21T02:11:31;15.40;68.90
25108;DHT22;13090;53.422;7.670;2023-05-21T02:16:52;15.40;69.20
25108;DHT22;13090;53.422;7.670;2023-05-21T02:22:13;15.40;69.10
25108;DHT22;13090;53.422;7.670;2023-05-21T02:27:36;15.30;69.10
25108;DHT22;13090;53.422;7.670;2023-05-21T02:32:57;15.20;69.30
25108;DHT22;13090;53.422;7.670;2023-05-21T02:38:18;15.20;69.30
25108;DHT22;13090;53.422;7.670;2023-05-21T02:43:41;15.10;69.20
25108;DHT22;13090;53.422;7.670;2023-05-21T02:49:02;15.10;69.60
25108;DHT22;13090;53.422;7.670;2023-05-21T02:54:23;15.10;69.40
25108;DHT22;13090;53.422;7.670;2023-05-21T02:59:45;15.00;69.60
25108;DHT22;13090;53.422;7.670;2023-05-21T03:05:07;14.90;69.80
25108;DHT22;13090;53.422;7.670;2023-05-21T03:10:28;14.80;70.00
25108;DHT22;13090;53.422;7.670;2023-05-21T03:15:50;14.80;70.00
25108;DHT22;13090;53.422;7.670;2023-05-21T03:21:11;14.80;70.40
25108;DHT22;13090;53.422;7.670;2023-05-21T03:26:32;14.70;70.30
25108;DHT22;13090;53.422;7.670;2023-05-21T03:31:54;14.70;70.30
25108;DHT22;13090;53.422;7.670;2023-05-21T03:37:15;14.70;70.60
25108;DHT22;13090;53.422;7.670;2023-05-21T03:42:36;14.70;70.40
25108;DHT22;13090;53.422;7.670;2023-05-21T03:47:58;14.70;70.50
25108;DHT22;13090;53.422;7.670;2023-05-21T03:53:19;14.70;70.70
25108;DHT22;13090;53.422;7.670;2023-05-21T03:58:40;14.70;70.70
25108;DHT22;13090;53.422;7.670;2023-05-21T04:04:02;14.70;70.80
25108;DHT22;13090;53.422;7.670;2023-05-21T04:09:23;14.70;71.00
25108;DHT22;13090;53.422;7.670;2023-05-21T04:14:44;14.80;71.00
25108;DHT22;13090;53.422;7.670;2023-05-21T04:20:08;14.90;71.00
25108;DHT22;13090;53.422;7.670;2023-05-21T04:25:28;15.00;71.20
25108;DHT22;13090;53.422;7.670;2023-05-21T04:30:49;15.00;71.20
25108;DHT22;13090;53.422;7.670;2023-05-21T04:36:12;15.10;71.20
25108;DHT22;13090;53.422;7.670;2023-05-21T04:41:33;15.20;71.30
25108;DHT22;13090;53.422;7.670;2023-05-21T04:46:53;15.30;71.20
25108;DHT22;13090;53.422;7.670;2023-05-21T04:52:16;15.30;71.20
25108;DHT22;13090;53.422;7.670;2023-05-21T04:57:37;15.40;71.40
25108;DHT22;13090;53.422;7.670;2023-05-21T05:02:58;15.50;71.60
25108;DHT22;13090;53.422;7.670;2023-05-21T05:08:20;15.80;71.70
25108;DHT22;13090;53.422;7.670;2023-05-21T05:13:41;16.00;71.60
25108;DHT22;13090;53.422;7.670;2023-05-21T05:19:02;16.30;71.70
25108;DHT22;13090;53.422;7.670;2023-05-21T05:24:24;16.70;71.70
25108;DHT22;13090;53.422;7.670;2023-05-21T05:29:46;17.10;71.00
25108;DHT22;13090;53.422;7.670;2023-05-21T05:35:08;17.40;70.50
25108;DHT22;13090;53.422;7.670;2023-05-21T05:40:30;17.70;70.00
25108;DHT22;13090;53.422;7.670;2023-05-21T05:45:52;17.90;69.10
25108;DHT22;13090;53.422;7.670;2023-05-21T05:51:13;17.90;68.20
25108;DHT22;13090;53.422;7.670;2023-05-21T05:56:35;17.70;68.10
25108;DHT22;13090;53.422;7.670;2023-05-21T06:01:56;17.60;68.40
25108;DHT22;13090;53.422;7.670;2023-05-21T06:07:17;17.70;68.70
25108;DHT22;13090;53.422;7.670;2023-05-21T06:12:39;17.70;68.90
25108;DHT22;13090;53.422;7.670;2023-05-21T06:18:00;17.80;68.80
25108;DHT22;13090;53.422;7.670;2023-05-21T06:23:21;18.00;68.70
25108;DHT22;13090;53.422;7.670;2023-05-21T06:28:43;18.00;68.40
25108;DHT22;13090;53.422;7.670;2023-05-21T06:34:04;18.10;68.30
25108;DHT22;13090;53.422;7.670;2023-05-21T06:39:25;18.10;68.30
25108;DHT22;13090;53.422;7.670;2023-05-21T06:44:47;18.20;68.30
25108;DHT22;13090;53.422;7.670;2023-05-21T06:50:08;18.30;68.30
25108;DHT22;13090;53.422;7.670;2023-05-21T06:55:29;18.40;68.20
25108;DHT22;13090;53.422;7.670;2023-05-21T07:00:51;18.50;68.10
25108;DHT22;13090;53.422;7.670;2023-05-21T07:06:12;18.70;68.00
25108;DHT22;13090;53.422;7.670;2023-05-21T07:11:33;18.80;68.00
25108;DHT22;13090;53.422;7.670;2023-05-21T07:16:55;18.90;67.90
25108;DHT22;13090;53.422;7.670;2023-05-21T07:22:16;19.10;67.70
25108;DHT22;13090;53.422;7.670;2023-05-21T07:27:37;19.40;67.90
25108;DHT22;13090;53.422;7.670;2023-05-21T07:32:59;19.60;67.50
25108;DHT22;13090;53.422;7.670;2023-05-21T07:38:20;19.90;67.10
25108;DHT22;13090;53.422;7.670;2023-05-21T07:43:41;19.90;65.90
25108;DHT22;13090;53.422;7.670;2023-05-21T07:49:04;20.00;66.50
25108;DHT22;13090;53.422;7.670;2023-05-21T07:54:25;20.20;66.40
25108;DHT22;13090;53.422;7.670;2023-05-21T07:59:46;20.40;67.00
25108;DHT22;13090;53.422;7.670;2023-05-21T08:05:09;20.60;66.00
25108;DHT22;13090;53.422;7.670;2023-05-21T08:10:30;20.80;65.30
25108;DHT22;13090;53.422;7.670;2023-05-21T08:15:51;20.90;64.40
25108;DHT22;13090;53.422;7.670;2023-05-21T08:21:14;20.80;64.80
25108;DHT22;13090;53.422;7.670;2023-05-21T08:26:36;20.90;65.20
25108;DHT22;13090;53.422;7.670;2023-05-21T08:31:56;21.00;65.20
25108;DHT22;13090;53.422;7.670;2023-05-21T08:37:20;21.20;65.00
25108;DHT22;13090;53.422;7.670;2023-05-21T08:42:42;21.50;64.70
25108;DHT22;13090;53.422;7.670;2023-05-21T08:48:05;21.60;63.70
25108;DHT22;13090;53.422;7.670;2023-05-21T08:53:31;21.60;63.30
25108;DHT22;13090;53.422;7.670;2023-05-21T08:58:52;21.60;63.80
25108;DHT22;13090;53.422;7.670;2023-05-21T09:04:14;21.80;64.10
25108;DHT22;13090;53.422;7.670;2023-05-21T09:09:46;22.00;63.90
25108;DHT22;13090;53.422;7.670;2023-05-21T09:15:08;22.30;63.60
25108;DHT22;13090;53.422;7.670;2023-05-21T09:20:30;22.50;63.70
25108;DHT22;13090;53.422;7.670;2023-05-21T09:25:53;22.70;63.20
25108;DHT22;13090;53.422;7.670;2023-05-21T09:31:14;23.00;63.00
25108;DHT22;13090;53.422;7.670;2023-05-21T09:36:36;23.20;62.80
25108;DHT22;13090;53.422;7.670;2023-05-21T09:41:59;23.50;62.50
25108;DHT22;13090;53.422;7.670;2023-05-21T09:47:20;23.90;61.70
25108;DHT22;13090;53.422;7.670;2023-05-21T09:52:40;24.20;62.00
25108;DHT22;13090;53.422;7.670;2023-05-21T09:58:04;24.50;60.90
25108;DHT22;13090;53.422;7.670;2023-05-21T10:03:26;24.70;59.90
25108;DHT22;13090;53.422;7.670;2023-05-21T10:08:48;25.00;60.10
25108;DHT22;13090;53.422;7.670;2023-05-21T10:14:15;25.30;59.90
25108;DHT22;13090;53.422;7.670;2023-05-21T10:19:36;25.60;59.20
25108;DHT22;13090;53.422;7.670;2023-05-21T10:24:58;25.90;60.00
25108;DHT22;13090;53.422;7.670;2023-05-21T10:30:22;26.10;59.00
25108;DHT22;13090;53.422;7.670;2023-05-21T10:35:46;26.30;58.80
25108;DHT22;13090;53.422;7.670;2023-05-21T10:41:07;26.70;58.60
25108;DHT22;13090;53.422;7.670;2023-05-21T10:52:43;27.50;56.70
25108;DHT22;13090;53.422;7.670;2023-05-21T10:58:20;27.80;56.00
25108;DHT22;13090;53.422;7.670;2023-05-21T11:03:45;27.70;54.90
25108;DHT22;13090;53.422;7.670;2023-05-21T11:09:11;27.50;55.70
25108;DHT22;13090;53.422;7.670;2023-05-21T11:14:33;27.50;55.60
25108;DHT22;13090;53.422;7.670;2023-05-21T11:20:03;27.40;55.50
25108;DHT22;13090;53.422;7.670;2023-05-21T11:25:24;27.30;55.00
25108;DHT22;13090;53.422;7.670;2023-05-21T11:36:47;27.00;55.30
25108;DHT22;13090;53.422;7.670;2023-05-21T11:42:09;26.90;55.70
25108;DHT22;13090;53.422;7.670;2023-05-21T11:47:30;26.90;55.90
25108;DHT22;13090;53.422;7.670;2023-05-21T11:52:53;26.70;55.20
25108;DHT22;13090;53.422;7.670;2023-05-21T11:58:17;26.40;55.40
25108;DHT22;13090;53.422;7.670;2023-05-21T12:03:38;26.10;56.00
25108;DHT22;13090;53.422;7.670;2023-05-21T12:09:00;26.10;56.80
25108;DHT22;13090;53.422;7.670;2023-05-21T12:14:22;26.20;56.60
25108;DHT22;13090;53.422;7.670;2023-05-21T12:19:44;26.40;56.70
25108;DHT22;13090;53.422;7.670;2023-05-21T12:25:07;26.60;56.80
25108;DHT22;13090;53.422;7.670;2023-05-21T12:30:28;26.90;56.30
25108;DHT22;13090;53.422;7.670;2023-05-21T12:35:50;27.10;56.10
25108;DHT22;13090;53.422;7.670;2023-05-21T12:41:12;27.30;54.50
25108;DHT22;13090;53.422;7.670;2023-05-21T12:46:34;27.20;55.70
25108;DHT22;13090;53.422;7.670;2023-05-21T12:51:56;27.40;56.10
25108;DHT22;13090;53.422;7.670;2023-05-21T12:57:18;27.70;56.00
25108;DHT22;13090;53.422;7.670;2023-05-21T13:02:41;28.10;55.30
25108;DHT22;13090;53.422;7.670;2023-05-21T13:08:04;28.30;55.20
25108;DHT22;13090;53.422;7.670;2023-05-21T13:13:27;28.30;54.30
25108;DHT22;13090;53.422;7.670;2023-05-21T13:18:48;28.10;54.10
25108;DHT22;13090;53.422;7.670;2023-05-21T13:24:09;28.10;54.50
25108;DHT22;13090;53.422;7.670;2023-05-21T13:29:31;28.10;54.60
25108;DHT22;13090;53.422;7.670;2023-05-21T13:34:52;28.10;54.50
25108;DHT22;13090;53.422;7.670;2023-05-21T13:40:14;28.20;54.80
25108;DHT22;13090;53.422;7.670;2023-05-21T13:45:37;28.40;54.60
25108;DHT22;13090;53.422;7.670;2023-05-21T13:50:58;28.40;54.40
25108;DHT22;13090;53.422;7.670;2023-05-21T13:56:20;28.40;53.10
25108;DHT22;13090;53.422;7.670;2023-05-21T14:01:42;28.00;54.20
25108;DHT22;13090;53.422;7.670;2023-05-21T14:07:04;27.90;54.40
25108;DHT22;13090;53.422;7.670;2023-05-21T14:12:25;27.90;54.90
25108;DHT22;13090;53.422;7.670;2023-05-21T14:17:47;28.00;55.00
25108;DHT22;13090;53.422;7.670;2023-05-21T14:23:08;28.20;54.90
25108;DHT22;13090;53.422;7.670;2023-05-21T14:28:29;28.40;55.10
25108;DHT22;13090;53.422;7.670;2023-05-21T14:33:51;28.60;55.10
25108;DHT22;13090;53.422;7.670;2023-05-21T14:39:13;28.70;54.80
25108;DHT22;13090;53.422;7.670;2023-05-21T14:44:34;28.90;54.70
25108;DHT22;13090;53.422;7.670;2023-05-21T14:49:56;29.00;54.60
25108;DHT22;13090;53.422;7.670;2023-05-21T14:55:17;29.00;54.50
25108;DHT22;13090;53.422;7.670;2023-05-21T15:00:38;28.80;54.20
25108;DHT22;13090;53.422;7.670;2023-05-21T15:06:00;28.70;54.90
25108;DHT22;13090;53.422;7.670;2023-05-21T15:11:21;28.50;54.30
25108;DHT22;13090;53.422;7.670;2023-05-21T15:16:42;28.40;54.50
25108;DHT22;13090;53.422;7.670;2023-05-21T15:22:05;28.20;54.90
25108;DHT22;13090;53.422;7.670;2023-05-21T15:27:26;28.20;55.00
25108;DHT22;13090;53.422;7.670;2023-05-21T15:32:47;28.10;55.10
25108;DHT22;13090;53.422;7.670;2023-05-21T15:38:09;28.10;55.30
25108;DHT22;13090;53.422;7.670;2023-05-21T15:43:31;28.10;55.30
25108;DHT22;13090;53.422;7.670;2023-05-21T15:48:52;28.00;55.50
25108;DHT22;13090;53.422;7.670;2023-05-21T15:54:14;28.20;55.90
25108;DHT22;13090;53.422;7.670;2023-05-21T15:59:35;28.30;55.90
25108;DHT22;13090;53.422;7.670;2023-05-21T16:04:56;28.40;55.90
25108;DHT22;13090;53.422;7.670;2023-05-21T16:10:18;28.50;55.80
25108;DHT22;13090;53.422;7.670;2023-05-21T16:15:39;28.50;56.40
25108;DHT22;13090;53.422;7.670;2023-05-21T16:21:01;28.50;55.70
25108;DHT22;13090;53.422;7.670;2023-05-21T16:26:24;28.40;56.50
25108;DHT22;13090;53.422;7.670;2023-05-21T16:31:46;28.40;55.80
25108;DHT22;13090;53.422;7.670;2023-05-21T16:37:07;28.40;55.90
25108;DHT22;13090;53.422;7.670;2023-05-21T16:42:29;28.40;56.00
25108;DHT22;13090;53.422;7.670;2023-05-21T16:47:50;28.40;56.00
25108;DHT22;13090;53.422;7.670;2023-05-21T16:53:11;28.30;56.10
25108;DHT22;13090;53.422;7.670;2023-05-21T16:58:34;28.30;56.30
25108;DHT22;13090;53.422;7.670;2023-05-21T17:03:55;28.20;56.10
25108;DHT22;13090;53.422;7.670;2023-05-21T17:09:16;28.10;56.00
25108;DHT22;13090;53.422;7.670;2023-05-21T17:14:40;28.10;56.30
25108;DHT22;13090;53.422;7.670;2023-05-21T17:20:01;27.90;56.40
25108;DHT22;13090;53.422;7.670;2023-05-21T17:25:22;27.80;56.60
25108;DHT22;13090;53.422;7.670;2023-05-21T17:30:44;27.70;56.80
25108;DHT22;13090;53.422;7.670;2023-05-21T17:36:08;27.70;57.20
25108;DHT22;13090;53.422;7.670;2023-05-21T17:41:29;27.50;57.20
25108;DHT22;13090;53.422;7.670;2023-05-21T17:46:51;27.40;57.40
25108;DHT22;13090;53.422;7.670;2023-05-21T17:52:13;27.30;57.90
25108;DHT22;13090;53.422;7.670;2023-05-21T17:57:34;27.10;57.70
25108;DHT22;13090;53.422;7.670;2023-05-21T18:02:57;27.00;58.00
25108;DHT22;13090;53.422;7.670;2023-05-21T18:08:18;26.80;58.50
25108;DHT22;13090;53.422;7.670;2023-05-21T18:13:39;26.70;58.50
25108;DHT22;13090;53.422;7.670;2023-05-21T18:19:01;26.50;58.90
25108;DHT22;13090;53.422;7.670;2023-05-21T18:24:22;26.30;59.30
25108;DHT22;13090;53.422;7.670;2023-05-21T18:29:43;26.20;59.50
25108;DHT22;13090;53.422;7.670;2023-05-21T18:35:06;26.10;59.90
25108;DHT22;13090;53.422;7.670;2023-05-21T18:40:27;25.90;60.50
25108;DHT22;13090;53.422;7.670;2023-05-21T18:45:50;25.70;60.80
25108;DHT22;13090;53.422;7.670;2023-05-21T18:51:12;25.60;61.10
25108;DHT22;13090;53.422;7.670;2023-05-21T18:56:33;25.50;61.80
25108;DHT22;13090;53.422;7.670;2023-05-21T19:01:54;25.30;62.10
25108;DHT22;13090;53.422;7.670;2023-05-21T19:07:17;25.20;63.00
25108;DHT22;13090;53.422;7.670;2023-05-21T19:12:38;25.00;63.10
25108;DHT22;13090;53.422;7.670;2023-05-21T19:18:00;25.00;63.40
25108;DHT22;13090;53.422;7.670;2023-05-21T19:23:22;24.90;63.60
25108;DHT22;13090;53.422;7.670;2023-05-21T19:28:43;24.80;63.80
25108;DHT22;13090;53.422;7.670;2023-05-21T19:34:04;24.80;63.70
25108;DHT22;13090;53.422;7.670;2023-05-21T19:39:28;24.70;63.80
25108;DHT22;13090;53.422;7.670;2023-05-21T19:44:49;24.70;64.40
25108;DHT22;13090;53.422;7.670;2023-05-21T19:50:10;24.60;64.30
25108;DHT22;13090;53.422;7.670;2023-05-21T19:55:33;24.40;64.40
25108;DHT22;13090;53.422;7.670;2023-05-21T20:00:54;24.30;64.70
25108;DHT22;13090;53.422;7.670;2023-05-21T20:06:15;24.20;64.90
25108;DHT22;13090;53.422;7.670;2023-05-21T20:11:38;24.10;65.00
25108;DHT22;13090;53.422;7.670;2023-05-21T20:16:59;24.00;65.40
25108;DHT22;13090;53.422;7.670;2023-05-21T20:22:20;24.00;65.80
25108;DHT22;13090;53.422;7.670;2023-05-21T20:27:42;23.90;65.60
25108;DHT22;13090;53.422;7.670;2023-05-21T20:33:04;23.80;66.10
25108;DHT22;13090;53.422;7.670;2023-05-21T20:38:25;23.60;66.40
25108;DHT22;13090;53.422;7.670;2023-05-21T20:43:47;23.50;66.50
25108;DHT22;13090;53.422;7.670;2023-05-21T20:49:08;23.40;66.80
25108;DHT22;13090;53.422;7.670;2023-05-21T20:54:30;23.40;66.90
25108;DHT22;13090;53.422;7.670;2023-05-21T20:59:52;23.30;67.00
25108;DHT22;13090;53.422;7.670;2023-05-21T21:05:13;23.30;67.10
25108;DHT22;13090;53.422;7.670;2023-05-21T21:10:34;23.30;67.20
25108;DHT22;13090;53.422;7.670;2023-05-21T21:15:57;23.20;67.30
25108;DHT22;13090;53.422;7.670;2023-05-21T21:21:18;23.20;67.80
25108;DHT22;13090;53.422;7.670;2023-05-21T21:26:39;23.10;67.50
25108;DHT22;13090;53.422;7.670;2023-05-21T21:32:02;23.00;67.70
25108;DHT22;13090;53.422;7.670;2023-05-21T21:37:23;23.00;68.10
25108;DHT22;13090;53.422;7.670;2023-05-21T21:42:44;22.90;68.10
25108;DHT22;13090;53.422;7.670;2023-05-21T21:48:06;22.90;68.30
25108;DHT22;13090;53.422;7.670;2023-05-21T21:53:27;22.80;69.00
25108;DHT22;13090;53.422;7.670;2023-05-21T21:58:48;22.70;69.90
25108;DHT22;13090;53.422;7.670;2023-05-21T22:04:10;22.50;69.80
25108;DHT22;13090;53.422;7.670;2023-05-21T22:09:31;22.40;70.40
25108;DHT22;13090;53.422;7.670;2023-05-21T22:14:52;22.40;70.20
25108;DHT22;13090;53.422;7.670;2023-05-21T22:20:14;22.30;70.70
25108;DHT22;13090;53.422;7.670;2023-05-21T22:25:35;22.20;70.70
25108;DHT22;13090;53.422;7.670;2023-05-21T22:30:56;22.10;71.00
25108;DHT22;13090;53.422;7.670;2023-05-21T22:36:19;22.10;71.10
25108;DHT22;13090;53.422;7.670;2023-05-21T22:41:39;22.00;71.40
25108;DHT22;13090;53.422;7.670;2023-05-21T22:47:00;22.00;71.40
25108;DHT22;13090;53.422;7.670;2023-05-21T22:52:22;21.90;71.40
25108;DHT22;13090;53.422;7.670;2023-05-21T22:57:44;21.90;71.70
25108;DHT22;13090;53.422;7.670;2023-05-21T23:03:04;21.90;71.70
25108;DHT22;13090;53.422;7.670;2023-05-21T23:08:27;21.90;71.80
25108;DHT22;13090;53.422;7.670;2023-05-21T23:13:47;21.90;72.00
25108;DHT22;13090;53.422;7.670;2023-05-21T23:19:08;21.90;71.80
25108;DHT22;13090;53.422;7.670;2023-05-21T23:24:30;21.80;71.80
25108;DHT22;13090;53.422;7.670;2023-05-21T23:29:51;21.80;72.10
25108;DHT22;13090;53.422;7.670;2023-05-21T23:35:12;21.80;72.10
25108;DHT22;13090;53.422;7.670;2023-05-21T23:40:34;21.70;72.10
25108;DHT22;13090;53.422;7.670;2023-05-21T23:45:55;21.70;72.50
25108;DHT22;13090;53.422;7.670;2023-05-21T23:51:17;21.60;72.60
25108;DHT22;13090;53.422;7.670;2023-05-21T23:56:39;21.60;72.80
